PWSweather.com
Personal Weather Stations
Station Observations
PICKERING
North Yorkshire, PickeringGB

North YorkshirePickeringGB

Lat: 54.2494, Lon: -0.7725

Elevation: 192

Station Type: Oregon Scientific WMR100

http://www.yorkshirewalker.co.uk/weather/

High Low Average
Temperature 66.0°F18.9°C 32.0°F0.0°C 45.2°F7.3°C
Dew Point 50.0°F10.0°C 24.8°F-4.0°C 35.9°F2.2°C
Winds 2.6 mph 4.2 kmh Calm Calm 1.0 mph E1.6 kmh E
Wind Gusts 4.0 mph6.4 kmh -- 2.0 mph3.2 kmh
Humidity 81% 54% 70%
Pressure 30.54 in1034.2 mb 30.36 in1028.1 mb -
Precipitation 0.00 in0.0 mm - -
Hour Temp Dew Point Humidity Winds Wind Gusts Pressure Precip Precip Rate Daily Precip Total
12:00 AM 37.9°F3.3°C 32.0°F0.0°C 75% 0.9 mph NNE1.4 kmh NNE 2.7 mph4.3 kmh 30.54 in1034.2 mb 0.00 in0.0 mm 0.00 in0.0 mm 0.00 in0.0 mm
12:05 AM 38.1°F3.4°C 32.0°F0.0°C 75% 0.9 mph N1.4 kmh N 2.7 mph4.3 kmh 30.54 in1034.2 mb 0.00 in0.0 mm 0.00 in0.0 mm 0.00 in0.0 mm
12:10 AM 37.8°F3.2°C 32.0°F0.0°C 75% 0.6 mph NE1.0 kmh NE 2.0 mph3.2 kmh 30.54 in1034.2 mb 0.00 in0.0 mm 0.00 in0.0 mm 0.00 in0.0 mm
12:15 AM 37.8°F3.2°C 32.0°F0.0°C 75% 0.9 mph NE1.4 kmh NE 2.0 mph3.2 kmh 30.54 in1034.2 mb 0.00 in0.0 mm 0.00 in0.0 mm 0.00 in0.0 mm
12:20 AM 37.9°F3.3°C 32.0°F0.0°C 75% 1.4 mph NE2.3 kmh NE 3.1 mph5.0 kmh 30.54 in1034.2 mb 0.00 in0.0 mm 0.00 in0.0 mm 0.00 in0.0 mm
12:25 AM 37.6°F3.1°C 30.2°F-1.0°C 75% 1.6 mph NE2.6 kmh NE 3.1 mph5.0 kmh 30.54 in1034.2 mb 0.00 in0.0 mm 0.00 in0.0 mm 0.00 in0.0 mm
12:30 AM 37.6°F3.1°C 30.2°F-1.0°C 75% 1.6 mph NE2.6 kmh NE 2.9 mph4.7 kmh 30.54 in1034.2 mb 0.00 in0.0 mm 0.00 in0.0 mm 0.00 in0.0 mm
12:35 AM 37.8°F3.2°C 32.0°F0.0°C 75% 1.7 mph NE2.7 kmh NE 2.9 mph4.7 kmh 30.54 in1034.2 mb 0.00 in0.0 mm 0.00 in0.0 mm 0.00 in0.0 mm
12:40 AM 37.4°F3.0°C 30.2°F-1.0°C 75% 1.4 mph NE2.3 kmh NE 2.7 mph4.3 kmh 30.54 in1034.2 mb 0.00 in0.0 mm 0.00 in0.0 mm 0.00 in0.0 mm
12:45 AM 37.8°F3.2°C 32.0°F0.0°C 75% 1.7 mph NE2.7 kmh NE 3.1 mph5.0 kmh 30.54 in1034.2 mb 0.00 in0.0 mm 0.00 in0.0 mm 0.00 in0.0 mm
12:50 AM 37.9°F3.3°C 32.0°F0.0°C 75% 2.5 mph NE4.0 kmh NE 3.8 mph6.1 kmh 30.54 in1034.2 mb 0.00 in0.0 mm 0.00 in0.0 mm 0.00 in0.0 mm
12:55 AM 37.6°F3.1°C 30.2°F-1.0°C 75% 1.8 mph NE2.9 kmh NE 3.8 mph6.1 kmh 30.51 in1033.2 mb 0.00 in0.0 mm 0.00 in0.0 mm 0.00 in0.0 mm
01:00 AM 37.6°F3.1°C 30.2°F-1.0°C 75% 1.4 mph ENE2.3 kmh ENE 2.9 mph4.7 kmh 30.51 in1033.2 mb 0.00 in0.0 mm 0.00 in0.0 mm 0.00 in0.0 mm
01:05 AM 37.6°F3.1°C 30.2°F-1.0°C 75% 1.7 mph ENE2.7 kmh ENE 2.9 mph4.7 kmh 30.51 in1033.2 mb 0.00 in0.0 mm 0.00 in0.0 mm 0.00 in0.0 mm
01:10 AM 37.4°F3.0°C 30.2°F-1.0°C 75% 1.7 mph ENE2.7 kmh ENE 2.7 mph4.3 kmh 30.51 in1033.2 mb 0.00 in0.0 mm 0.00 in0.0 mm 0.00 in0.0 mm
01:15 AM 37.4°F3.0°C 30.2°F-1.0°C 75% 1.5 mph NE2.4 kmh NE 2.0 mph3.2 kmh 30.51 in1033.2 mb 0.00 in0.0 mm 0.00 in0.0 mm 0.00 in0.0 mm
01:20 AM 36.7°F2.6°C 30.2°F-1.0°C 75% 1.2 mph ENE1.9 kmh ENE 1.6 mph2.6 kmh 30.51 in1033.2 mb 0.00 in0.0 mm 0.00 in0.0 mm 0.00 in0.0 mm
01:25 AM 36.1°F2.3°C 30.2°F-1.0°C 75% 1.0 mph ENE1.6 kmh ENE 1.6 mph2.6 kmh 30.51 in1033.2 mb 0.00 in0.0 mm 0.00 in0.0 mm 0.00 in0.0 mm
01:30 AM 35.8°F2.1°C 30.2°F-1.0°C 75% 1.0 mph NE1.6 kmh NE 1.6 mph2.6 kmh 30.51 in1033.2 mb 0.00 in0.0 mm 0.00 in0.0 mm 0.00 in0.0 mm
01:35 AM 35.8°F2.1°C 30.2°F-1.0°C 75% 1.4 mph NE2.3 kmh NE 2.7 mph4.3 kmh 30.51 in1033.2 mb 0.00 in0.0 mm 0.00 in0.0 mm 0.00 in0.0 mm
01:40 AM 35.8°F2.1°C 30.2°F-1.0°C 75% 1.5 mph NE2.4 kmh NE 2.7 mph4.3 kmh 30.51 in1033.2 mb 0.00 in0.0 mm 0.00 in0.0 mm 0.00 in0.0 mm
01:45 AM 35.6°F2.0°C 30.2°F-1.0°C 75% 1.2 mph NE1.9 kmh NE 2.5 mph4.0 kmh 30.51 in1033.2 mb 0.00 in0.0 mm 0.00 in0.0 mm 0.00 in0.0 mm
01:50 AM 35.6°F2.0°C 30.2°F-1.0°C 76% 1.8 mph NE2.9 kmh NE 2.9 mph4.7 kmh 30.51 in1033.2 mb 0.00 in0.0 mm 0.00 in0.0 mm 0.00 in0.0 mm
01:55 AM 35.6°F2.0°C 30.2°F-1.0°C 76% 1.6 mph NE2.6 kmh NE 2.9 mph4.7 kmh 30.51 in1033.2 mb 0.00 in0.0 mm 0.00 in0.0 mm 0.00 in0.0 mm
02:00 AM 35.2°F1.8°C 28.4°F-2.0°C 76% 1.0 mph NE1.6 kmh NE 2.2 mph3.5 kmh 30.51 in1033.2 mb 0.00 in0.0 mm 0.00 in0.0 mm 0.00 in0.0 mm
02:05 AM 35.1°F1.7°C 28.4°F-2.0°C 76% 1.3 mph NE2.1 kmh NE 2.5 mph4.0 kmh 30.51 in1033.2 mb 0.00 in0.0 mm 0.00 in0.0 mm 0.00 in0.0 mm
02:10 AM 35.1°F1.7°C 28.4°F-2.0°C 76% 1.6 mph NE2.6 kmh NE 2.5 mph4.0 kmh 30.51 in1033.2 mb 0.00 in0.0 mm 0.00 in0.0 mm 0.00 in0.0 mm
02:15 AM 35.4°F1.9°C 28.4°F-2.0°C 76% 1.9 mph NE3.1 kmh NE 2.9 mph4.7 kmh 30.51 in1033.2 mb 0.00 in0.0 mm 0.00 in0.0 mm 0.00 in0.0 mm
02:20 AM 35.2°F1.8°C 28.4°F-2.0°C 76% 2.0 mph NE3.2 kmh NE 2.9 mph4.7 kmh 30.51 in1033.2 mb 0.00 in0.0 mm 0.00 in0.0 mm 0.00 in0.0 mm
02:25 AM 35.2°F1.8°C 28.4°F-2.0°C 77% 1.6 mph NE2.6 kmh NE 2.5 mph4.0 kmh 30.51 in1033.2 mb 0.00 in0.0 mm 0.00 in0.0 mm 0.00 in0.0 mm
02:30 AM 35.1°F1.7°C 28.4°F-2.0°C 76% 1.5 mph NE2.4 kmh NE 2.2 mph3.5 kmh 30.51 in1033.2 mb 0.00 in0.0 mm 0.00 in0.0 mm 0.00 in0.0 mm
02:35 AM 34.7°F1.5°C 28.4°F-2.0°C 76% 1.0 mph ENE1.6 kmh ENE 2.0 mph3.2 kmh 30.51 in1033.2 mb 0.00 in0.0 mm 0.00 in0.0 mm 0.00 in0.0 mm
02:40 AM 34.3°F1.3°C 28.4°F-2.0°C 76% 0.9 mph NE1.4 kmh NE 1.6 mph2.6 kmh 30.51 in1033.2 mb 0.00 in0.0 mm 0.00 in0.0 mm 0.00 in0.0 mm
02:45 AM 34.3°F1.3°C 28.4°F-2.0°C 76% 1.4 mph NE2.3 kmh NE 3.4 mph5.5 kmh 30.51 in1033.2 mb 0.00 in0.0 mm 0.00 in0.0 mm 0.00 in0.0 mm
02:50 AM 35.1°F1.7°C 28.4°F-2.0°C 77% 1.5 mph NE2.4 kmh NE 3.4 mph5.5 kmh 30.51 in1033.2 mb 0.00 in0.0 mm 0.00 in0.0 mm 0.00 in0.0 mm
02:55 AM 34.7°F1.5°C 28.4°F-2.0°C 77% 1.3 mph NE2.1 kmh NE 3.1 mph5.0 kmh 30.51 in1033.2 mb 0.00 in0.0 mm 0.00 in0.0 mm 0.00 in0.0 mm
03:00 AM 34.7°F1.5°C 28.4°F-2.0°C 77% 1.0 mph NE1.6 kmh NE 1.6 mph2.6 kmh 30.51 in1033.2 mb 0.00 in0.0 mm 0.00 in0.0 mm 0.00 in0.0 mm
03:05 AM 34.7°F1.5°C 28.4°F-2.0°C 77% 1.0 mph NNE1.6 kmh NNE 1.6 mph2.6 kmh 30.51 in1033.2 mb 0.00 in0.0 mm 0.00 in0.0 mm 0.00 in0.0 mm
03:10 AM 34.7°F1.5°C 28.4°F-2.0°C 77% 0.9 mph NE1.4 kmh NE 1.3 mph2.1 kmh 30.48 in1032.2 mb 0.00 in0.0 mm 0.00 in0.0 mm 0.00 in0.0 mm
03:15 AM 34.5°F1.4°C 28.4°F-2.0°C 77% 0.7 mph NE1.1 kmh NE 1.3 mph2.1 kmh 30.48 in1032.2 mb 0.00 in0.0 mm 0.00 in0.0 mm 0.00 in0.0 mm
03:20 AM 34.5°F1.4°C 28.4°F-2.0°C 77% 1.2 mph NE1.9 kmh NE 2.7 mph4.3 kmh 30.48 in1032.2 mb 0.00 in0.0 mm 0.00 in0.0 mm 0.00 in0.0 mm
03:25 AM 34.3°F1.3°C 28.4°F-2.0°C 77% 1.6 mph NE2.6 kmh NE 2.7 mph4.3 kmh 30.48 in1032.2 mb 0.00 in0.0 mm 0.00 in0.0 mm 0.00 in0.0 mm
03:30 AM 34.5°F1.4°C 28.4°F-2.0°C 77% 1.6 mph NE2.6 kmh NE 2.9 mph4.7 kmh 30.48 in1032.2 mb 0.00 in0.0 mm 0.00 in0.0 mm 0.00 in0.0 mm
03:35 AM 34.2°F1.2°C 28.4°F-2.0°C 77% 1.1 mph NE1.8 kmh NE 2.9 mph4.7 kmh 30.48 in1032.2 mb 0.00 in0.0 mm 0.00 in0.0 mm 0.00 in0.0 mm
03:40 AM 33.8°F1.0°C 28.4°F-2.0°C 77% 0.9 mph NE1.4 kmh NE 2.2 mph3.5 kmh 30.48 in1032.2 mb 0.00 in0.0 mm 0.00 in0.0 mm 0.00 in0.0 mm
03:45 AM 33.8°F1.0°C 28.4°F-2.0°C 77% 1.4 mph NE2.3 kmh NE 2.7 mph4.3 kmh 30.48 in1032.2 mb 0.00 in0.0 mm 0.00 in0.0 mm 0.00 in0.0 mm
03:50 AM 34.2°F1.2°C 28.4°F-2.0°C 77% 1.9 mph NE3.1 kmh NE 2.7 mph4.3 kmh 30.48 in1032.2 mb 0.00 in0.0 mm 0.00 in0.0 mm 0.00 in0.0 mm
03:55 AM 34.0°F1.1°C 28.4°F-2.0°C 77% 2.0 mph NE3.2 kmh NE 2.7 mph4.3 kmh 30.48 in1032.2 mb 0.00 in0.0 mm 0.00 in0.0 mm 0.00 in0.0 mm
04:00 AM 33.8°F1.0°C 28.4°F-2.0°C 77% 1.4 mph NE2.3 kmh NE 2.5 mph4.0 kmh 30.48 in1032.2 mb 0.00 in0.0 mm 0.00 in0.0 mm 0.00 in0.0 mm
04:05 AM 33.3°F0.7°C 26.6°F-3.0°C 77% 1.4 mph NE2.3 kmh NE 2.2 mph3.5 kmh 30.48 in1032.2 mb 0.00 in0.0 mm 0.00 in0.0 mm 0.00 in0.0 mm
04:10 AM 33.1°F0.6°C 26.6°F-3.0°C 77% 0.9 mph NE1.4 kmh NE 1.6 mph2.6 kmh 30.48 in1032.2 mb 0.00 in0.0 mm 0.00 in0.0 mm 0.00 in0.0 mm
04:15 AM 33.1°F0.6°C 26.6°F-3.0°C 77% 1.1 mph NE1.8 kmh NE 3.4 mph5.5 kmh 30.48 in1032.2 mb 0.00 in0.0 mm 0.00 in0.0 mm 0.00 in0.0 mm
04:20 AM 33.1°F0.6°C 26.6°F-3.0°C 77% 1.8 mph NE2.9 kmh NE 3.4 mph5.5 kmh 30.48 in1032.2 mb 0.00 in0.0 mm 0.00 in0.0 mm 0.00 in0.0 mm
04:25 AM 33.4°F0.8°C 28.4°F-2.0°C 78% 2.0 mph NE3.2 kmh NE 3.6 mph5.8 kmh 30.48 in1032.2 mb 0.00 in0.0 mm 0.00 in0.0 mm 0.00 in0.0 mm
04:30 AM 33.1°F0.6°C 26.6°F-3.0°C 77% 2.2 mph NE3.5 kmh NE 3.6 mph5.8 kmh 30.48 in1032.2 mb 0.00 in0.0 mm 0.00 in0.0 mm 0.00 in0.0 mm
04:35 AM 33.4°F0.8°C 28.4°F-2.0°C 78% 2.1 mph NE3.4 kmh NE 2.9 mph4.7 kmh 30.48 in1032.2 mb 0.00 in0.0 mm 0.00 in0.0 mm 0.00 in0.0 mm
04:40 AM 33.4°F0.8°C 28.4°F-2.0°C 78% 1.6 mph NE2.6 kmh NE 2.7 mph4.3 kmh 30.48 in1032.2 mb 0.00 in0.0 mm 0.00 in0.0 mm 0.00 in0.0 mm
04:45 AM 33.1°F0.6°C 26.6°F-3.0°C 78% 1.2 mph ENE1.9 kmh ENE 1.6 mph2.6 kmh 30.48 in1032.2 mb 0.00 in0.0 mm 0.00 in0.0 mm 0.00 in0.0 mm
04:50 AM 32.9°F0.5°C 26.6°F-3.0°C 78% 1.2 mph NE1.9 kmh NE 2.0 mph3.2 kmh 30.48 in1032.2 mb 0.00 in0.0 mm 0.00 in0.0 mm 0.00 in0.0 mm
04:55 AM 32.5°F0.3°C 26.6°F-3.0°C 78% 1.3 mph NE2.1 kmh NE 2.0 mph3.2 kmh 30.48 in1032.2 mb 0.00 in0.0 mm 0.00 in0.0 mm 0.00 in0.0 mm
05:00 AM 32.4°F0.2°C 26.6°F-3.0°C 78% 1.0 mph NE1.6 kmh NE 2.0 mph3.2 kmh 30.48 in1032.2 mb 0.00 in0.0 mm 0.00 in0.0 mm 0.00 in0.0 mm
05:05 AM 32.2°F0.1°C 26.6°F-3.0°C 78% 1.1 mph NE1.8 kmh NE 3.1 mph5.0 kmh 30.48 in1032.2 mb 0.00 in0.0 mm 0.00 in0.0 mm 0.00 in0.0 mm
05:10 AM 32.7°F0.4°C 26.6°F-3.0°C 78% 1.8 mph NE2.9 kmh NE 3.1 mph5.0 kmh 30.48 in1032.2 mb 0.00 in0.0 mm 0.00 in0.0 mm 0.00 in0.0 mm
05:15 AM 32.5°F0.3°C 26.6°F-3.0°C 78% 1.8 mph NE2.9 kmh NE 3.1 mph5.0 kmh 30.48 in1032.2 mb 0.00 in0.0 mm 0.00 in0.0 mm 0.00 in0.0 mm
05:20 AM 32.5°F0.3°C 26.6°F-3.0°C 78% 1.2 mph NE1.9 kmh NE 2.5 mph4.0 kmh 30.48 in1032.2 mb 0.00 in0.0 mm 0.00 in0.0 mm 0.00 in0.0 mm
05:25 AM 32.9°F0.5°C 26.6°F-3.0°C 78% 1.6 mph NE2.6 kmh NE 2.5 mph4.0 kmh 30.45 in1031.2 mb 0.00 in0.0 mm 0.00 in0.0 mm 0.00 in0.0 mm
05:30 AM 32.9°F0.5°C 26.6°F-3.0°C 78% 1.2 mph NE1.9 kmh NE 2.5 mph4.0 kmh 30.45 in1031.2 mb 0.00 in0.0 mm 0.00 in0.0 mm 0.00 in0.0 mm
05:35 AM 32.5°F0.3°C 26.6°F-3.0°C 78% 1.0 mph NE1.6 kmh NE 2.5 mph4.0 kmh 30.45 in1031.2 mb 0.00 in0.0 mm 0.00 in0.0 mm 0.00 in0.0 mm
05:40 AM 32.4°F0.2°C 26.6°F-3.0°C 78% 1.1 mph NE1.8 kmh NE 2.5 mph4.0 kmh 30.45 in1031.2 mb 0.00 in0.0 mm 0.00 in0.0 mm 0.00 in0.0 mm
05:45 AM 32.2°F0.1°C 26.6°F-3.0°C 78% 1.2 mph NE1.9 kmh NE 2.7 mph4.3 kmh 30.45 in1031.2 mb 0.00 in0.0 mm 0.00 in0.0 mm 0.00 in0.0 mm
05:50 AM 32.7°F0.4°C 26.6°F-3.0°C 78% 1.9 mph NE3.1 kmh NE 2.9 mph4.7 kmh 30.45 in1031.2 mb 0.00 in0.0 mm 0.00 in0.0 mm 0.00 in0.0 mm
05:55 AM 32.7°F0.4°C 26.6°F-3.0°C 79% 2.3 mph NE3.7 kmh NE 2.9 mph4.7 kmh 30.45 in1031.2 mb 0.00 in0.0 mm 0.00 in0.0 mm 0.00 in0.0 mm
06:00 AM 32.9°F0.5°C 28.4°F-2.0°C 79% 2.0 mph NE3.2 kmh NE 2.5 mph4.0 kmh 30.45 in1031.2 mb 0.00 in0.0 mm 0.00 in0.0 mm 0.00 in0.0 mm
06:05 AM 32.9°F0.5°C 28.4°F-2.0°C 79% 2.1 mph NE3.4 kmh NE 2.9 mph4.7 kmh 30.45 in1031.2 mb 0.00 in0.0 mm 0.00 in0.0 mm 0.00 in0.0 mm
06:10 AM 32.9°F0.5°C 28.4°F-2.0°C 79% 2.3 mph NE3.7 kmh NE 3.4 mph5.5 kmh 30.45 in1031.2 mb 0.00 in0.0 mm 0.00 in0.0 mm 0.00 in0.0 mm
06:15 AM 32.7°F0.4°C 26.6°F-3.0°C 78% 2.0 mph NE3.2 kmh NE 3.4 mph5.5 kmh 30.45 in1031.2 mb 0.00 in0.0 mm 0.00 in0.0 mm 0.00 in0.0 mm
06:20 AM 32.5°F0.3°C 26.6°F-3.0°C 79% 1.9 mph NE3.1 kmh NE 3.4 mph5.5 kmh 30.45 in1031.2 mb 0.00 in0.0 mm 0.00 in0.0 mm 0.00 in0.0 mm
06:25 AM 32.4°F0.2°C 26.6°F-3.0°C 78% 1.4 mph NE2.3 kmh NE 2.7 mph4.3 kmh 30.45 in1031.2 mb 0.00 in0.0 mm 0.00 in0.0 mm 0.00 in0.0 mm
06:30 AM 32.2°F0.1°C 26.6°F-3.0°C 78% 0.9 mph NE1.4 kmh NE 1.6 mph2.6 kmh 30.45 in1031.2 mb 0.00 in0.0 mm 0.00 in0.0 mm 0.00 in0.0 mm
06:35 AM 32.2°F0.1°C 26.6°F-3.0°C 78% 1.2 mph NE1.9 kmh NE 2.2 mph3.5 kmh 30.45 in1031.2 mb 0.00 in0.0 mm 0.00 in0.0 mm 0.00 in0.0 mm
06:40 AM 32.2°F0.1°C 26.6°F-3.0°C 79% 1.3 mph NE2.1 kmh NE 2.5 mph4.0 kmh 30.45 in1031.2 mb 0.00 in0.0 mm 0.00 in0.0 mm 0.00 in0.0 mm
06:45 AM 32.0°F0.0°C 24.8°F-4.0°C 78% 1.7 mph NE2.7 kmh NE 2.5 mph4.0 kmh 30.45 in1031.2 mb 0.00 in0.0 mm 0.00 in0.0 mm 0.00 in0.0 mm
06:50 AM 32.0°F0.0°C 24.8°F-4.0°C 78% 1.9 mph NE3.1 kmh NE 2.5 mph4.0 kmh 30.45 in1031.2 mb 0.00 in0.0 mm 0.00 in0.0 mm 0.00 in0.0 mm
06:55 AM 32.0°F0.0°C 24.8°F-4.0°C 79% 2.0 mph NE3.2 kmh NE 2.7 mph4.3 kmh 30.45 in1031.2 mb 0.00 in0.0 mm 0.00 in0.0 mm 0.00 in0.0 mm
07:00 AM 32.0°F0.0°C 24.8°F-4.0°C 79% 1.7 mph NE2.7 kmh NE 2.7 mph4.3 kmh 30.45 in1031.2 mb 0.00 in0.0 mm 0.00 in0.0 mm 0.00 in0.0 mm
07:05 AM 32.0°F0.0°C 24.8°F-4.0°C 79% 1.9 mph NE3.1 kmh NE 3.4 mph5.5 kmh 30.45 in1031.2 mb 0.00 in0.0 mm 0.00 in0.0 mm 0.00 in0.0 mm
07:10 AM 32.0°F0.0°C 24.8°F-4.0°C 79% 1.9 mph NE3.1 kmh NE 3.4 mph5.5 kmh 30.45 in1031.2 mb 0.00 in0.0 mm 0.00 in0.0 mm 0.00 in0.0 mm
07:15 AM 32.0°F0.0°C 24.8°F-4.0°C 79% 1.1 mph NE1.8 kmh NE 2.5 mph4.0 kmh 30.45 in1031.2 mb 0.00 in0.0 mm 0.00 in0.0 mm 0.00 in0.0 mm
07:20 AM 32.0°F0.0°C 24.8°F-4.0°C 79% 1.2 mph NNE1.9 kmh NNE 2.5 mph4.0 kmh 30.45 in1031.2 mb 0.00 in0.0 mm 0.00 in0.0 mm 0.00 in0.0 mm
07:25 AM 32.0°F0.0°C 24.8°F-4.0°C 79% 1.3 mph NE2.1 kmh NE 2.5 mph4.0 kmh 30.45 in1031.2 mb 0.00 in0.0 mm 0.00 in0.0 mm 0.00 in0.0 mm
07:30 AM 32.0°F0.0°C 24.8°F-4.0°C 79% 1.3 mph NE2.1 kmh NE 2.5 mph4.0 kmh 30.45 in1031.2 mb 0.00 in0.0 mm 0.00 in0.0 mm 0.00 in0.0 mm
07:35 AM 32.0°F0.0°C 24.8°F-4.0°C 79% 1.8 mph NE2.9 kmh NE 2.5 mph4.0 kmh 30.45 in1031.2 mb 0.00 in0.0 mm 0.00 in0.0 mm 0.00 in0.0 mm
07:40 AM 32.0°F0.0°C 24.8°F-4.0°C 79% 1.5 mph NE2.4 kmh NE 2.5 mph4.0 kmh 30.48 in1032.2 mb 0.00 in0.0 mm 0.00 in0.0 mm 0.00 in0.0 mm
07:45 AM 32.4°F0.2°C 26.6°F-3.0°C 79% 1.3 mph NE2.1 kmh NE 2.2 mph3.5 kmh 30.48 in1032.2 mb 0.00 in0.0 mm 0.00 in0.0 mm 0.00 in0.0 mm
07:50 AM 32.5°F0.3°C 26.6°F-3.0°C 79% 1.9 mph NE3.1 kmh NE 3.4 mph5.5 kmh 30.48 in1032.2 mb 0.00 in0.0 mm 0.00 in0.0 mm 0.00 in0.0 mm
07:55 AM 32.5°F0.3°C 26.6°F-3.0°C 79% 1.5 mph NE2.4 kmh NE 3.4 mph5.5 kmh 30.45 in1031.2 mb 0.00 in0.0 mm 0.00 in0.0 mm 0.00 in0.0 mm
08:00 AM 32.5°F0.3°C 26.6°F-3.0°C 79% 1.0 mph NE1.6 kmh NE 2.2 mph3.5 kmh 30.45 in1031.2 mb 0.00 in0.0 mm 0.00 in0.0 mm 0.00 in0.0 mm
08:05 AM 32.5°F0.3°C 26.6°F-3.0°C 79% 0.5 mph NNE0.8 kmh NNE 1.6 mph2.6 kmh 30.45 in1031.2 mb 0.00 in0.0 mm 0.00 in0.0 mm 0.00 in0.0 mm
08:10 AM 33.1°F0.6°C 28.4°F-2.0°C 80% 0.7 mph ENE1.1 kmh ENE 2.0 mph3.2 kmh 30.48 in1032.2 mb 0.00 in0.0 mm 0.00 in0.0 mm 0.00 in0.0 mm
08:15 AM 33.3°F0.7°C 28.4°F-2.0°C 80% 1.7 mph NE2.7 kmh NE 2.9 mph4.7 kmh 30.48 in1032.2 mb 0.00 in0.0 mm 0.00 in0.0 mm 0.00 in0.0 mm
08:20 AM 34.0°F1.1°C 28.4°F-2.0°C 80% 2.1 mph NE3.4 kmh NE 2.9 mph4.7 kmh 30.48 in1032.2 mb 0.00 in0.0 mm 0.00 in0.0 mm 0.00 in0.0 mm
08:25 AM 34.2°F1.2°C 30.2°F-1.0°C 80% 1.9 mph NE3.1 kmh NE 3.4 mph5.5 kmh 30.48 in1032.2 mb 0.00 in0.0 mm 0.00 in0.0 mm 0.00 in0.0 mm
08:30 AM 34.5°F1.4°C 30.2°F-1.0°C 80% 2.0 mph NE3.2 kmh NE 3.4 mph5.5 kmh 30.48 in1032.2 mb 0.00 in0.0 mm 0.00 in0.0 mm 0.00 in0.0 mm
08:35 AM 34.7°F1.5°C 30.2°F-1.0°C 80% 1.4 mph NE2.3 kmh NE 2.7 mph4.3 kmh 30.48 in1032.2 mb 0.00 in0.0 mm 0.00 in0.0 mm 0.00 in0.0 mm
08:40 AM 34.9°F1.6°C 30.2°F-1.0°C 80% 0.9 mph ENE1.4 kmh ENE 1.6 mph2.6 kmh 30.48 in1032.2 mb 0.00 in0.0 mm 0.00 in0.0 mm 0.00 in0.0 mm
08:45 AM 35.2°F1.8°C 30.2°F-1.0°C 80% 0.8 mph NE1.3 kmh NE 1.6 mph2.6 kmh 30.48 in1032.2 mb 0.00 in0.0 mm 0.00 in0.0 mm 0.00 in0.0 mm
08:50 AM 35.6°F2.0°C 30.2°F-1.0°C 80% 0.6 mph NE1.0 kmh NE 1.1 mph1.8 kmh 30.48 in1032.2 mb 0.00 in0.0 mm 0.00 in0.0 mm 0.00 in0.0 mm
08:55 AM 35.8°F2.1°C 30.2°F-1.0°C 80% 0.6 mph NE1.0 kmh NE 1.6 mph2.6 kmh 30.48 in1032.2 mb 0.00 in0.0 mm 0.00 in0.0 mm 0.00 in0.0 mm
09:00 AM 36.1°F2.3°C 32.0°F0.0°C 80% 0.7 mph ENE1.1 kmh ENE 1.6 mph2.6 kmh 30.48 in1032.2 mb 0.00 in0.0 mm 0.00 in0.0 mm 0.00 in0.0 mm
09:05 AM 36.7°F2.6°C 32.0°F0.0°C 80% 0.3 mph E0.5 kmh E 1.3 mph2.1 kmh 30.48 in1032.2 mb 0.00 in0.0 mm 0.00 in0.0 mm 0.00 in0.0 mm
09:10 AM 37.0°F2.8°C 32.0°F0.0°C 80% 0.1 mph E0.2 kmh E 0.9 mph1.4 kmh 30.48 in1032.2 mb 0.00 in0.0 mm 0.00 in0.0 mm 0.00 in0.0 mm
09:15 AM 37.6°F3.1°C 32.0°F0.0°C 80% 0.2 mph E0.3 kmh E 0.9 mph1.4 kmh 30.48 in1032.2 mb 0.00 in0.0 mm 0.00 in0.0 mm 0.00 in0.0 mm
09:20 AM 38.1°F3.4°C 33.8°F1.0°C 81% 0.4 mph E0.6 kmh E 1.1 mph1.8 kmh 30.48 in1032.2 mb 0.00 in0.0 mm 0.00 in0.0 mm 0.00 in0.0 mm
09:25 AM 38.8°F3.8°C 33.8°F1.0°C 81% 0.4 mph E0.6 kmh E 1.1 mph1.8 kmh 30.48 in1032.2 mb 0.00 in0.0 mm 0.00 in0.0 mm 0.00 in0.0 mm
09:30 AM 39.6°F4.2°C 33.8°F1.0°C 80% 0.2 mph E0.3 kmh E 0.9 mph1.4 kmh 30.48 in1032.2 mb 0.00 in0.0 mm 0.00 in0.0 mm 0.00 in0.0 mm
09:35 AM 40.1°F4.5°C 35.6°F2.0°C 80% Calm Calm -- 30.48 in1032.2 mb 0.00 in0.0 mm 0.00 in0.0 mm 0.00 in0.0 mm
09:40 AM 40.3°F4.6°C 33.8°F1.0°C 79% Calm Calm -- 30.48 in1032.2 mb 0.00 in0.0 mm 0.00 in0.0 mm 0.00 in0.0 mm
09:45 AM 40.6°F4.8°C 33.8°F1.0°C 79% Calm Calm -- 30.48 in1032.2 mb 0.00 in0.0 mm 0.00 in0.0 mm 0.00 in0.0 mm
09:50 AM 41.0°F5.0°C 35.6°F2.0°C 79% 0.5 mph SSW0.8 kmh SSW 1.3 mph2.1 kmh 30.48 in1032.2 mb 0.00 in0.0 mm 0.00 in0.0 mm 0.00 in0.0 mm
09:55 AM 41.2°F5.1°C 35.6°F2.0°C 78% 0.9 mph SSW1.4 kmh SSW 1.3 mph2.1 kmh 30.48 in1032.2 mb 0.00 in0.0 mm 0.00 in0.0 mm 0.00 in0.0 mm
10:00 AM 41.9°F5.5°C 35.6°F2.0°C 77% 1.2 mph SW1.9 kmh SW 2.0 mph3.2 kmh 30.48 in1032.2 mb 0.00 in0.0 mm 0.00 in0.0 mm 0.00 in0.0 mm
10:05 AM 42.4°F5.8°C 35.6°F2.0°C 76% 1.5 mph W2.4 kmh W 2.0 mph3.2 kmh 30.48 in1032.2 mb 0.00 in0.0 mm 0.00 in0.0 mm 0.00 in0.0 mm
10:10 AM 42.4°F5.8°C 35.6°F2.0°C 76% 1.0 mph W1.6 kmh W 1.6 mph2.6 kmh 30.48 in1032.2 mb 0.00 in0.0 mm 0.00 in0.0 mm 0.00 in0.0 mm
10:15 AM 42.8°F6.0°C 35.6°F2.0°C 76% 0.9 mph WSW1.4 kmh WSW 2.0 mph3.2 kmh 30.48 in1032.2 mb 0.00 in0.0 mm 0.00 in0.0 mm 0.00 in0.0 mm
10:20 AM 43.0°F6.1°C 35.6°F2.0°C 75% 0.8 mph WSW1.3 kmh WSW 2.0 mph3.2 kmh 30.48 in1032.2 mb 0.00 in0.0 mm 0.00 in0.0 mm 0.00 in0.0 mm
10:25 AM 43.7°F6.5°C 37.4°F3.0°C 75% 0.7 mph WSW1.1 kmh WSW 1.6 mph2.6 kmh 30.48 in1032.2 mb 0.00 in0.0 mm 0.00 in0.0 mm 0.00 in0.0 mm
10:30 AM 44.4°F6.9°C 37.4°F3.0°C 75% 0.9 mph WNW1.4 kmh WNW 1.6 mph2.6 kmh 30.48 in1032.2 mb 0.00 in0.0 mm 0.00 in0.0 mm 0.00 in0.0 mm
10:35 AM 45.9°F7.7°C 37.4°F3.0°C 74% 1.2 mph NNW1.9 kmh NNW 2.0 mph3.2 kmh 30.48 in1032.2 mb 0.00 in0.0 mm 0.00 in0.0 mm 0.00 in0.0 mm
10:40 AM 46.9°F8.3°C 39.2°F4.0°C 74% 1.6 mph NNW2.6 kmh NNW 2.0 mph3.2 kmh 30.48 in1032.2 mb 0.00 in0.0 mm 0.00 in0.0 mm 0.00 in0.0 mm
10:45 AM 48.7°F9.3°C 41.0°F5.0°C 72% 1.6 mph NW2.6 kmh NW 2.0 mph3.2 kmh 30.48 in1032.2 mb 0.00 in0.0 mm 0.00 in0.0 mm 0.00 in0.0 mm
10:50 AM 50.5°F10.3°C 41.0°F5.0°C 70% 1.6 mph NW2.6 kmh NW 2.2 mph3.5 kmh 30.48 in1032.2 mb 0.00 in0.0 mm 0.00 in0.0 mm 0.00 in0.0 mm
10:55 AM 52.5°F11.4°C 42.8°F6.0°C 69% 1.2 mph NW1.9 kmh NW 2.2 mph3.5 kmh 30.48 in1032.2 mb 0.00 in0.0 mm 0.00 in0.0 mm 0.00 in0.0 mm
11:00 AM 54.3°F12.4°C 44.6°F7.0°C 68% 0.8 mph NW1.3 kmh NW 2.5 mph4.0 kmh 30.48 in1032.2 mb 0.00 in0.0 mm 0.00 in0.0 mm 0.00 in0.0 mm
11:05 AM 55.9°F13.3°C 46.4°F8.0°C 68% 0.8 mph NW1.3 kmh NW 2.5 mph4.0 kmh 30.48 in1032.2 mb 0.00 in0.0 mm 0.00 in0.0 mm 0.00 in0.0 mm
11:10 AM 56.5°F13.6°C 46.4°F8.0°C 67% 1.1 mph NW1.8 kmh NW 2.0 mph3.2 kmh 30.48 in1032.2 mb 0.00 in0.0 mm 0.00 in0.0 mm 0.00 in0.0 mm
11:15 AM 57.4°F14.1°C 46.4°F8.0°C 66% 1.5 mph WNW2.4 kmh WNW 2.9 mph4.7 kmh 30.48 in1032.2 mb 0.00 in0.0 mm 0.00 in0.0 mm 0.00 in0.0 mm
11:20 AM 58.1°F14.5°C 48.2°F9.0°C 65% 1.6 mph W2.6 kmh W 2.9 mph4.7 kmh 30.48 in1032.2 mb 0.00 in0.0 mm 0.00 in0.0 mm 0.00 in0.0 mm
11:25 AM 59.2°F15.1°C 48.2°F9.0°C 64% 0.9 mph NW1.4 kmh NW 2.7 mph4.3 kmh 30.48 in1032.2 mb 0.00 in0.0 mm 0.00 in0.0 mm 0.00 in0.0 mm
11:30 AM 60.1°F15.6°C 48.2°F9.0°C 63% 0.8 mph N1.3 kmh N 1.6 mph2.6 kmh 30.48 in1032.2 mb 0.00 in0.0 mm 0.00 in0.0 mm 0.00 in0.0 mm
11:35 AM 61.0°F16.1°C 48.2°F9.0°C 63% 1.1 mph NNW1.8 kmh NNW 2.2 mph3.5 kmh 30.48 in1032.2 mb 0.00 in0.0 mm 0.00 in0.0 mm 0.00 in0.0 mm
11:40 AM 61.3°F16.3°C 48.2°F9.0°C 63% 1.2 mph W1.9 kmh W 2.5 mph4.0 kmh 30.48 in1032.2 mb 0.00 in0.0 mm 0.00 in0.0 mm 0.00 in0.0 mm
11:45 AM 61.9°F16.6°C 48.2°F9.0°C 62% 1.2 mph W1.9 kmh W 2.5 mph4.0 kmh 30.48 in1032.2 mb 0.00 in0.0 mm 0.00 in0.0 mm 0.00 in0.0 mm
11:50 AM 62.8°F17.1°C 48.2°F9.0°C 61% 1.1 mph WNW1.8 kmh WNW 2.7 mph4.3 kmh 30.48 in1032.2 mb 0.00 in0.0 mm 0.00 in0.0 mm 0.00 in0.0 mm
11:55 AM 63.1°F17.3°C 50.0°F10.0°C 60% 1.1 mph WSW1.8 kmh WSW 3.1 mph5.0 kmh 30.48 in1032.2 mb 0.00 in0.0 mm 0.00 in0.0 mm 0.00 in0.0 mm
12:00 PM 63.5°F17.5°C 50.0°F10.0°C 59% 1.1 mph WSW1.8 kmh WSW 3.1 mph5.0 kmh 30.48 in1032.2 mb 0.00 in0.0 mm 0.00 in0.0 mm 0.00 in0.0 mm
12:05 PM 64.0°F17.8°C 50.0°F10.0°C 59% 0.7 mph WSW1.1 kmh WSW 2.5 mph4.0 kmh 30.48 in1032.2 mb 0.00 in0.0 mm 0.00 in0.0 mm 0.00 in0.0 mm
12:10 PM 63.0°F17.2°C 48.2°F9.0°C 59% 1.0 mph WSW1.6 kmh WSW 2.5 mph4.0 kmh 30.48 in1032.2 mb 0.00 in0.0 mm 0.00 in0.0 mm 0.00 in0.0 mm
12:15 PM 63.9°F17.7°C 48.2°F9.0°C 58% 1.2 mph W1.9 kmh W 2.5 mph4.0 kmh 30.48 in1032.2 mb 0.00 in0.0 mm 0.00 in0.0 mm 0.00 in0.0 mm
12:20 PM 64.4°F18.0°C 48.2°F9.0°C 57% 1.1 mph WSW1.8 kmh WSW 2.5 mph4.0 kmh 30.48 in1032.2 mb 0.00 in0.0 mm 0.00 in0.0 mm 0.00 in0.0 mm
12:25 PM 64.0°F17.8°C 48.2°F9.0°C 57% 0.9 mph SW1.4 kmh SW 1.6 mph2.6 kmh 30.48 in1032.2 mb 0.00 in0.0 mm 0.00 in0.0 mm 0.00 in0.0 mm
12:30 PM 65.3°F18.5°C 50.0°F10.0°C 57% 1.0 mph WSW1.6 kmh WSW 1.6 mph2.6 kmh 30.48 in1032.2 mb 0.00 in0.0 mm 0.00 in0.0 mm 0.00 in0.0 mm
12:35 PM 65.5°F18.6°C 50.0°F10.0°C 57% 0.9 mph W1.4 kmh W 1.6 mph2.6 kmh 30.48 in1032.2 mb 0.00 in0.0 mm 0.00 in0.0 mm 0.00 in0.0 mm
12:40 PM 66.0°F18.9°C 50.0°F10.0°C 56% 0.8 mph SW1.3 kmh SW 2.0 mph3.2 kmh 30.48 in1032.2 mb 0.00 in0.0 mm 0.00 in0.0 mm 0.00 in0.0 mm
12:45 PM 65.5°F18.6°C 48.2°F9.0°C 55% 1.2 mph SW1.9 kmh SW 3.1 mph5.0 kmh 30.48 in1032.2 mb 0.00 in0.0 mm 0.00 in0.0 mm 0.00 in0.0 mm
12:50 PM 65.7°F18.7°C 48.2°F9.0°C 55% 1.6 mph SW2.6 kmh SW 3.1 mph5.0 kmh 30.48 in1032.2 mb 0.00 in0.0 mm 0.00 in0.0 mm 0.00 in0.0 mm
12:55 PM 65.8°F18.8°C 48.2°F9.0°C 54% 2.0 mph WSW3.2 kmh WSW 2.9 mph4.7 kmh 30.48 in1032.2 mb 0.00 in0.0 mm 0.00 in0.0 mm 0.00 in0.0 mm
01:00 PM 65.5°F18.6°C 48.2°F9.0°C 55% 2.4 mph WSW3.9 kmh WSW 3.6 mph5.8 kmh 30.48 in1032.2 mb 0.00 in0.0 mm 0.00 in0.0 mm 0.00 in0.0 mm
01:05 PM 65.8°F18.8°C 48.2°F9.0°C 55% 2.3 mph WSW3.7 kmh WSW 3.6 mph5.8 kmh 30.48 in1032.2 mb 0.00 in0.0 mm 0.00 in0.0 mm 0.00 in0.0 mm
01:10 PM 65.7°F18.7°C 48.2°F9.0°C 55% 1.8 mph WSW2.9 kmh WSW 2.9 mph4.7 kmh 30.45 in1031.2 mb 0.00 in0.0 mm 0.00 in0.0 mm 0.00 in0.0 mm
01:15 PM 65.3°F18.5°C 50.0°F10.0°C 56% 1.8 mph WSW2.9 kmh WSW 2.9 mph4.7 kmh 30.45 in1031.2 mb 0.00 in0.0 mm 0.00 in0.0 mm 0.00 in0.0 mm
01:20 PM 65.7°F18.7°C 50.0°F10.0°C 56% 1.8 mph WSW2.9 kmh WSW 3.1 mph5.0 kmh 30.45 in1031.2 mb 0.00 in0.0 mm 0.00 in0.0 mm 0.00 in0.0 mm
01:25 PM 65.3°F18.5°C 48.2°F9.0°C 55% 2.2 mph WSW3.5 kmh WSW 3.4 mph5.5 kmh 30.45 in1031.2 mb 0.00 in0.0 mm 0.00 in0.0 mm 0.00 in0.0 mm
01:30 PM 64.8°F18.2°C 48.2°F9.0°C 55% 2.3 mph SW3.7 kmh SW 3.4 mph5.5 kmh 30.45 in1031.2 mb 0.00 in0.0 mm 0.00 in0.0 mm 0.00 in0.0 mm
01:35 PM 64.6°F18.1°C 48.2°F9.0°C 55% 1.8 mph WSW2.9 kmh WSW 3.6 mph5.8 kmh 30.45 in1031.2 mb 0.00 in0.0 mm 0.00 in0.0 mm 0.00 in0.0 mm
01:40 PM 64.4°F18.0°C 48.2°F9.0°C 55% 1.7 mph WSW2.7 kmh WSW 3.6 mph5.8 kmh 30.45 in1031.2 mb 0.00 in0.0 mm 0.00 in0.0 mm 0.00 in0.0 mm
01:45 PM 64.2°F17.9°C 48.2°F9.0°C 56% 2.0 mph SW3.2 kmh SW 3.4 mph5.5 kmh 30.45 in1031.2 mb 0.00 in0.0 mm 0.00 in0.0 mm 0.00 in0.0 mm
01:50 PM 63.9°F17.7°C 48.2°F9.0°C 56% 1.7 mph S2.7 kmh S 3.4 mph5.5 kmh 30.45 in1031.2 mb 0.00 in0.0 mm 0.00 in0.0 mm 0.00 in0.0 mm
01:55 PM 63.7°F17.6°C 48.2°F9.0°C 56% 1.1 mph S1.8 kmh S 2.5 mph4.0 kmh 30.45 in1031.2 mb 0.00 in0.0 mm 0.00 in0.0 mm 0.00 in0.0 mm
02:00 PM 64.0°F17.8°C 48.2°F9.0°C 57% 1.2 mph S1.9 kmh S 2.5 mph4.0 kmh 30.45 in1031.2 mb 0.00 in0.0 mm 0.00 in0.0 mm 0.00 in0.0 mm
02:05 PM 64.0°F17.8°C 48.2°F9.0°C 57% 1.3 mph SSE2.1 kmh SSE 2.9 mph4.7 kmh 30.45 in1031.2 mb 0.00 in0.0 mm 0.00 in0.0 mm 0.00 in0.0 mm
02:10 PM 63.9°F17.7°C 48.2°F9.0°C 57% 1.2 mph S1.9 kmh S 2.9 mph4.7 kmh 30.45 in1031.2 mb 0.00 in0.0 mm 0.00 in0.0 mm 0.00 in0.0 mm
02:15 PM 63.7°F17.6°C 48.2°F9.0°C 57% 1.8 mph SW2.9 kmh SW 3.1 mph5.0 kmh 30.45 in1031.2 mb 0.00 in0.0 mm 0.00 in0.0 mm 0.00 in0.0 mm
02:20 PM 63.5°F17.5°C 48.2°F9.0°C 56% 2.3 mph SW3.7 kmh SW 3.4 mph5.5 kmh 30.45 in1031.2 mb 0.00 in0.0 mm 0.00 in0.0 mm 0.00 in0.0 mm
02:25 PM 63.5°F17.5°C 48.2°F9.0°C 57% 1.8 mph SSW2.9 kmh SSW 3.4 mph5.5 kmh 30.45 in1031.2 mb 0.00 in0.0 mm 0.00 in0.0 mm 0.00 in0.0 mm
02:30 PM 63.5°F17.5°C 48.2°F9.0°C 57% 1.9 mph SSW3.1 kmh SSW 4.0 mph6.4 kmh 30.45 in1031.2 mb 0.00 in0.0 mm 0.00 in0.0 mm 0.00 in0.0 mm
02:35 PM 63.5°F17.5°C 48.2°F9.0°C 57% 1.9 mph SSW3.1 kmh SSW 4.0 mph6.4 kmh 30.45 in1031.2 mb 0.00 in0.0 mm 0.00 in0.0 mm 0.00 in0.0 mm
02:40 PM 63.9°F17.7°C 48.2°F9.0°C 58% 1.5 mph S2.4 kmh S 3.8 mph6.1 kmh 30.45 in1031.2 mb 0.00 in0.0 mm 0.00 in0.0 mm 0.00 in0.0 mm
02:45 PM 63.7°F17.6°C 48.2°F9.0°C 57% 1.4 mph S2.3 kmh S 2.7 mph4.3 kmh 30.45 in1031.2 mb 0.00 in0.0 mm 0.00 in0.0 mm 0.00 in0.0 mm
02:50 PM 63.5°F17.5°C 48.2°F9.0°C 57% 1.1 mph SSE1.8 kmh SSE 2.7 mph4.3 kmh 30.45 in1031.2 mb 0.00 in0.0 mm 0.00 in0.0 mm 0.00 in0.0 mm
02:55 PM 63.7°F17.6°C 48.2°F9.0°C 57% 1.0 mph SE1.6 kmh SE 2.5 mph4.0 kmh 30.45 in1031.2 mb 0.00 in0.0 mm 0.00 in0.0 mm 0.00 in0.0 mm
03:00 PM 63.5°F17.5°C 48.2°F9.0°C 57% 1.1 mph SE1.8 kmh SE 3.1 mph5.0 kmh 30.45 in1031.2 mb 0.00 in0.0 mm 0.00 in0.0 mm 0.00 in0.0 mm
03:05 PM 63.5°F17.5°C 48.2°F9.0°C 58% 1.5 mph S2.4 kmh S 3.1 mph5.0 kmh 30.45 in1031.2 mb 0.00 in0.0 mm 0.00 in0.0 mm 0.00 in0.0 mm
03:10 PM 63.5°F17.5°C 48.2°F9.0°C 57% 1.7 mph S2.7 kmh S 3.8 mph6.1 kmh 30.42 in1030.1 mb 0.00 in0.0 mm 0.00 in0.0 mm 0.00 in0.0 mm
03:15 PM 63.1°F17.3°C 48.2°F9.0°C 57% 1.4 mph S2.3 kmh S 3.8 mph6.1 kmh 30.42 in1030.1 mb 0.00 in0.0 mm 0.00 in0.0 mm 0.00 in0.0 mm
03:20 PM 63.1°F17.3°C 48.2°F9.0°C 57% 1.3 mph S2.1 kmh S 3.8 mph6.1 kmh 30.42 in1030.1 mb 0.00 in0.0 mm 0.00 in0.0 mm 0.00 in0.0 mm
03:25 PM 63.0°F17.2°C 48.2°F9.0°C 56% 1.0 mph SSW1.6 kmh SSW 1.6 mph2.6 kmh 30.42 in1030.1 mb 0.00 in0.0 mm 0.00 in0.0 mm 0.00 in0.0 mm
03:30 PM 63.1°F17.3°C 48.2°F9.0°C 56% 1.3 mph S2.1 kmh S 2.9 mph4.7 kmh 30.42 in1030.1 mb 0.00 in0.0 mm 0.00 in0.0 mm 0.00 in0.0 mm
03:35 PM 63.1°F17.3°C 48.2°F9.0°C 56% 1.0 mph S1.6 kmh S 2.9 mph4.7 kmh 30.42 in1030.1 mb 0.00 in0.0 mm 0.00 in0.0 mm 0.00 in0.0 mm
03:40 PM 63.0°F17.2°C 48.2°F9.0°C 56% 0.6 mph SSE1.0 kmh SSE 2.0 mph3.2 kmh 30.42 in1030.1 mb 0.00 in0.0 mm 0.00 in0.0 mm 0.00 in0.0 mm
03:45 PM 62.8°F17.1°C 46.4°F8.0°C 56% 0.5 mph SE0.8 kmh SE 2.0 mph3.2 kmh 30.42 in1030.1 mb 0.00 in0.0 mm 0.00 in0.0 mm 0.00 in0.0 mm
03:50 PM 62.6°F17.0°C 46.4°F8.0°C 56% 0.1 mph SE0.2 kmh SE 1.1 mph1.8 kmh 30.42 in1030.1 mb 0.00 in0.0 mm 0.00 in0.0 mm 0.00 in0.0 mm
03:55 PM 62.2°F16.8°C 46.4°F8.0°C 56% 0.1 mph SSE0.2 kmh SSE 2.0 mph3.2 kmh 30.42 in1030.1 mb 0.00 in0.0 mm 0.00 in0.0 mm 0.00 in0.0 mm
04:00 PM 62.1°F16.7°C 46.4°F8.0°C 56% 0.4 mph SE0.6 kmh SE 2.5 mph4.0 kmh 30.42 in1030.1 mb 0.00 in0.0 mm 0.00 in0.0 mm 0.00 in0.0 mm
04:05 PM 61.9°F16.6°C 46.4°F8.0°C 56% 0.5 mph SE0.8 kmh SE 2.5 mph4.0 kmh 30.42 in1030.1 mb 0.00 in0.0 mm 0.00 in0.0 mm 0.00 in0.0 mm
04:10 PM 61.5°F16.4°C 46.4°F8.0°C 57% 0.4 mph S0.6 kmh S 1.1 mph1.8 kmh 30.42 in1030.1 mb 0.00 in0.0 mm 0.00 in0.0 mm 0.00 in0.0 mm
04:15 PM 61.2°F16.2°C 46.4°F8.0°C 56% 0.3 mph S0.5 kmh S 0.9 mph1.4 kmh 30.42 in1030.1 mb 0.00 in0.0 mm 0.00 in0.0 mm 0.00 in0.0 mm
04:20 PM 61.2°F16.2°C 46.4°F8.0°C 56% 0.2 mph S0.3 kmh S 0.9 mph1.4 kmh 30.42 in1030.1 mb 0.00 in0.0 mm 0.00 in0.0 mm 0.00 in0.0 mm
04:25 PM 61.0°F16.1°C 46.4°F8.0°C 57% Calm Calm -- 30.42 in1030.1 mb 0.00 in0.0 mm 0.00 in0.0 mm 0.00 in0.0 mm
04:30 PM 60.6°F15.9°C 46.4°F8.0°C 57% Calm Calm -- 30.42 in1030.1 mb 0.00 in0.0 mm 0.00 in0.0 mm 0.00 in0.0 mm
04:35 PM 60.1°F15.6°C 44.6°F7.0°C 57% 0.1 mph SE0.2 kmh SE 0.9 mph1.4 kmh 30.42 in1030.1 mb 0.00 in0.0 mm 0.00 in0.0 mm 0.00 in0.0 mm
04:40 PM 59.7°F15.4°C 44.6°F7.0°C 58% 0.1 mph SE0.2 kmh SE 0.9 mph1.4 kmh 30.42 in1030.1 mb 0.00 in0.0 mm 0.00 in0.0 mm 0.00 in0.0 mm
04:45 PM 59.5°F15.3°C 46.4°F8.0°C 59% Calm Calm -- 30.42 in1030.1 mb 0.00 in0.0 mm 0.00 in0.0 mm 0.00 in0.0 mm
04:50 PM 59.4°F15.2°C 46.4°F8.0°C 59% 0.2 mph ESE0.3 kmh ESE 1.6 mph2.6 kmh 30.42 in1030.1 mb 0.00 in0.0 mm 0.00 in0.0 mm 0.00 in0.0 mm
04:55 PM 59.0°F15.0°C 46.4°F8.0°C 60% 0.2 mph ESE0.3 kmh ESE 1.6 mph2.6 kmh 30.42 in1030.1 mb 0.00 in0.0 mm 0.00 in0.0 mm 0.00 in0.0 mm
05:00 PM 58.5°F14.7°C 44.6°F7.0°C 60% 0.1 mph ESE0.2 kmh ESE 0.9 mph1.4 kmh 30.42 in1030.1 mb 0.00 in0.0 mm 0.00 in0.0 mm 0.00 in0.0 mm
05:05 PM 58.1°F14.5°C 44.6°F7.0°C 61% 0.9 mph SE1.4 kmh SE 2.9 mph4.7 kmh 30.42 in1030.1 mb 0.00 in0.0 mm 0.00 in0.0 mm 0.00 in0.0 mm
05:10 PM 57.7°F14.3°C 44.6°F7.0°C 61% 0.9 mph SE1.4 kmh SE 2.9 mph4.7 kmh 30.42 in1030.1 mb 0.00 in0.0 mm 0.00 in0.0 mm 0.00 in0.0 mm
05:15 PM 57.6°F14.2°C 44.6°F7.0°C 61% 0.3 mph S0.5 kmh S 1.3 mph2.1 kmh 30.42 in1030.1 mb 0.00 in0.0 mm 0.00 in0.0 mm 0.00 in0.0 mm
05:20 PM 57.0°F13.9°C 44.6°F7.0°C 61% 0.2 mph SSE0.3 kmh SSE 1.3 mph2.1 kmh 30.42 in1030.1 mb 0.00 in0.0 mm 0.00 in0.0 mm 0.00 in0.0 mm
05:25 PM 56.3°F13.5°C 44.6°F7.0°C 62% 0.1 mph SE0.2 kmh SE 0.9 mph1.4 kmh 30.42 in1030.1 mb 0.00 in0.0 mm 0.00 in0.0 mm 0.00 in0.0 mm
05:30 PM 55.8°F13.2°C 42.8°F6.0°C 62% 0.1 mph SSE0.2 kmh SSE 0.9 mph1.4 kmh 30.42 in1030.1 mb 0.00 in0.0 mm 0.00 in0.0 mm 0.00 in0.0 mm
05:35 PM 55.2°F12.9°C 42.8°F6.0°C 63% 0.1 mph SSE0.2 kmh SSE 0.9 mph1.4 kmh 30.42 in1030.1 mb 0.00 in0.0 mm 0.00 in0.0 mm 0.00 in0.0 mm
05:40 PM 54.9°F12.7°C 42.8°F6.0°C 63% 0.1 mph SE0.2 kmh SE 0.9 mph1.4 kmh 30.42 in1030.1 mb 0.00 in0.0 mm 0.00 in0.0 mm 0.00 in0.0 mm
05:45 PM 54.3°F12.4°C 42.8°F6.0°C 63% 0.2 mph SE0.3 kmh SE 1.1 mph1.8 kmh 30.42 in1030.1 mb 0.00 in0.0 mm 0.00 in0.0 mm 0.00 in0.0 mm
05:50 PM 54.0°F12.2°C 42.8°F6.0°C 64% 0.2 mph SE0.3 kmh SE 1.1 mph1.8 kmh 30.42 in1030.1 mb 0.00 in0.0 mm 0.00 in0.0 mm 0.00 in0.0 mm
05:55 PM 53.6°F12.0°C 42.8°F6.0°C 64% 0.1 mph SE0.2 kmh SE 1.1 mph1.8 kmh 30.42 in1030.1 mb 0.00 in0.0 mm 0.00 in0.0 mm 0.00 in0.0 mm
06:00 PM 53.2°F11.8°C 41.0°F5.0°C 64% 0.3 mph SE0.5 kmh SE 1.1 mph1.8 kmh 30.42 in1030.1 mb 0.00 in0.0 mm 0.00 in0.0 mm 0.00 in0.0 mm
06:05 PM 52.7°F11.5°C 41.0°F5.0°C 64% 0.1 mph ESE0.2 kmh ESE 1.1 mph1.8 kmh 30.42 in1030.1 mb 0.00 in0.0 mm 0.00 in0.0 mm 0.00 in0.0 mm
06:10 PM 52.3°F11.3°C 41.0°F5.0°C 64% Calm Calm -- 30.42 in1030.1 mb 0.00 in0.0 mm 0.00 in0.0 mm 0.00 in0.0 mm
06:15 PM 52.2°F11.2°C 41.0°F5.0°C 64% 0.1 mph SSE0.2 kmh SSE 1.1 mph1.8 kmh 30.42 in1030.1 mb 0.00 in0.0 mm 0.00 in0.0 mm 0.00 in0.0 mm
06:20 PM 51.8°F11.0°C 41.0°F5.0°C 65% 0.1 mph SSE0.2 kmh SSE 1.1 mph1.8 kmh 30.42 in1030.1 mb 0.00 in0.0 mm 0.00 in0.0 mm 0.00 in0.0 mm
06:25 PM 51.6°F10.9°C 41.0°F5.0°C 65% Calm Calm -- 30.42 in1030.1 mb 0.00 in0.0 mm 0.00 in0.0 mm 0.00 in0.0 mm
06:30 PM 51.4°F10.8°C 41.0°F5.0°C 65% Calm Calm -- 30.42 in1030.1 mb 0.00 in0.0 mm 0.00 in0.0 mm 0.00 in0.0 mm
06:35 PM 51.1°F10.6°C 41.0°F5.0°C 65% 0.3 mph E0.5 kmh E 1.1 mph1.8 kmh 30.42 in1030.1 mb 0.00 in0.0 mm 0.00 in0.0 mm 0.00 in0.0 mm
06:40 PM 50.4°F10.2°C 39.2°F4.0°C 65% 0.6 mph E1.0 kmh E 1.1 mph1.8 kmh 30.42 in1030.1 mb 0.00 in0.0 mm 0.00 in0.0 mm 0.00 in0.0 mm
06:45 PM 50.0°F10.0°C 39.2°F4.0°C 65% 0.9 mph NE1.4 kmh NE 1.3 mph2.1 kmh 30.42 in1030.1 mb 0.00 in0.0 mm 0.00 in0.0 mm 0.00 in0.0 mm
06:50 PM 49.6°F9.8°C 39.2°F4.0°C 65% 1.2 mph NE1.9 kmh NE 1.3 mph2.1 kmh 30.42 in1030.1 mb 0.00 in0.0 mm 0.00 in0.0 mm 0.00 in0.0 mm
06:55 PM 49.3°F9.6°C 39.2°F4.0°C 66% 1.5 mph NE2.4 kmh NE 2.0 mph3.2 kmh 30.42 in1030.1 mb 0.00 in0.0 mm 0.00 in0.0 mm 0.00 in0.0 mm
07:00 PM 48.9°F9.4°C 37.4°F3.0°C 66% 1.6 mph NE2.6 kmh NE 2.0 mph3.2 kmh 30.42 in1030.1 mb 0.00 in0.0 mm 0.00 in0.0 mm 0.00 in0.0 mm
07:05 PM 48.4°F9.1°C 37.4°F3.0°C 66% 1.0 mph NE1.6 kmh NE 2.0 mph3.2 kmh 30.42 in1030.1 mb 0.00 in0.0 mm 0.00 in0.0 mm 0.00 in0.0 mm
07:10 PM 48.0°F8.9°C 37.4°F3.0°C 67% 0.4 mph ENE0.6 kmh ENE 2.0 mph3.2 kmh 30.42 in1030.1 mb 0.00 in0.0 mm 0.00 in0.0 mm 0.00 in0.0 mm
07:15 PM 47.7°F8.7°C 37.4°F3.0°C 67% 0.3 mph ENE0.5 kmh ENE 1.1 mph1.8 kmh 30.42 in1030.1 mb 0.00 in0.0 mm 0.00 in0.0 mm 0.00 in0.0 mm
07:20 PM 47.3°F8.5°C 37.4°F3.0°C 67% 0.3 mph E0.5 kmh E 1.1 mph1.8 kmh 30.42 in1030.1 mb 0.00 in0.0 mm 0.00 in0.0 mm 0.00 in0.0 mm
07:25 PM 46.8°F8.2°C 37.4°F3.0°C 67% 0.3 mph ENE0.5 kmh ENE 1.3 mph2.1 kmh 30.42 in1030.1 mb 0.00 in0.0 mm 0.00 in0.0 mm 0.00 in0.0 mm
07:30 PM 46.8°F8.2°C 37.4°F3.0°C 67% 0.9 mph NE1.4 kmh NE 2.0 mph3.2 kmh 30.42 in1030.1 mb 0.00 in0.0 mm 0.00 in0.0 mm 0.00 in0.0 mm
07:35 PM 46.8°F8.2°C 37.4°F3.0°C 68% 1.6 mph NE2.6 kmh NE 2.5 mph4.0 kmh 30.42 in1030.1 mb 0.00 in0.0 mm 0.00 in0.0 mm 0.00 in0.0 mm
07:40 PM 46.4°F8.0°C 37.4°F3.0°C 68% 1.5 mph ENE2.4 kmh ENE 2.5 mph4.0 kmh 30.39 in1029.1 mb 0.00 in0.0 mm 0.00 in0.0 mm 0.00 in0.0 mm
07:45 PM 46.2°F7.9°C 37.4°F3.0°C 68% 1.5 mph ENE2.4 kmh ENE 2.5 mph4.0 kmh 30.39 in1029.1 mb 0.00 in0.0 mm 0.00 in0.0 mm 0.00 in0.0 mm
07:50 PM 45.5°F7.5°C 35.6°F2.0°C 68% 1.7 mph NE2.7 kmh NE 2.7 mph4.3 kmh 30.39 in1029.1 mb 0.00 in0.0 mm 0.00 in0.0 mm 0.00 in0.0 mm
07:55 PM 45.3°F7.4°C 35.6°F2.0°C 68% 1.9 mph NE3.1 kmh NE 2.7 mph4.3 kmh 30.39 in1029.1 mb 0.00 in0.0 mm 0.00 in0.0 mm 0.00 in0.0 mm
08:00 PM 44.6°F7.0°C 35.6°F2.0°C 68% 2.2 mph NE3.5 kmh NE 3.1 mph5.0 kmh 30.39 in1029.1 mb 0.00 in0.0 mm 0.00 in0.0 mm 0.00 in0.0 mm
08:05 PM 44.6°F7.0°C 35.6°F2.0°C 69% 2.0 mph NE3.2 kmh NE 3.1 mph5.0 kmh 30.39 in1029.1 mb 0.00 in0.0 mm 0.00 in0.0 mm 0.00 in0.0 mm
08:10 PM 44.4°F6.9°C 35.6°F2.0°C 69% 1.4 mph NE2.3 kmh NE 2.2 mph3.5 kmh 30.39 in1029.1 mb 0.00 in0.0 mm 0.00 in0.0 mm 0.00 in0.0 mm
08:15 PM 44.1°F6.7°C 33.8°F1.0°C 69% 0.8 mph NE1.3 kmh NE 2.2 mph3.5 kmh 30.39 in1029.1 mb 0.00 in0.0 mm 0.00 in0.0 mm 0.00 in0.0 mm
08:20 PM 43.9°F6.6°C 33.8°F1.0°C 69% 0.8 mph NE1.3 kmh NE 1.6 mph2.6 kmh 30.39 in1029.1 mb 0.00 in0.0 mm 0.00 in0.0 mm 0.00 in0.0 mm
08:25 PM 43.5°F6.4°C 33.8°F1.0°C 69% 1.2 mph NE1.9 kmh NE 2.2 mph3.5 kmh 30.39 in1029.1 mb 0.00 in0.0 mm 0.00 in0.0 mm 0.00 in0.0 mm
08:30 PM 43.3°F6.3°C 33.8°F1.0°C 69% 1.0 mph NE1.6 kmh NE 2.2 mph3.5 kmh 30.39 in1029.1 mb 0.00 in0.0 mm 0.00 in0.0 mm 0.00 in0.0 mm
08:35 PM 43.0°F6.1°C 33.8°F1.0°C 69% 0.6 mph NE1.0 kmh NE 1.1 mph1.8 kmh 30.39 in1029.1 mb 0.00 in0.0 mm 0.00 in0.0 mm 0.00 in0.0 mm
08:40 PM 42.6°F5.9°C 33.8°F1.0°C 70% 0.9 mph NE1.4 kmh NE 2.0 mph3.2 kmh 30.39 in1029.1 mb 0.00 in0.0 mm 0.00 in0.0 mm 0.00 in0.0 mm
08:45 PM 42.4°F5.8°C 33.8°F1.0°C 70% 1.3 mph NE2.1 kmh NE 2.0 mph3.2 kmh 30.39 in1029.1 mb 0.00 in0.0 mm 0.00 in0.0 mm 0.00 in0.0 mm
08:50 PM 42.3°F5.7°C 33.8°F1.0°C 70% 1.4 mph NE2.3 kmh NE 2.0 mph3.2 kmh 30.39 in1029.1 mb 0.00 in0.0 mm 0.00 in0.0 mm 0.00 in0.0 mm
08:55 PM 42.1°F5.6°C 33.8°F1.0°C 70% 1.2 mph NE1.9 kmh NE 2.0 mph3.2 kmh 30.39 in1029.1 mb 0.00 in0.0 mm 0.00 in0.0 mm 0.00 in0.0 mm
09:00 PM 41.9°F5.5°C 33.8°F1.0°C 70% 1.0 mph NE1.6 kmh NE 2.7 mph4.3 kmh 30.39 in1029.1 mb 0.00 in0.0 mm 0.00 in0.0 mm 0.00 in0.0 mm
09:05 PM 41.7°F5.4°C 33.8°F1.0°C 70% 1.2 mph NE1.9 kmh NE 2.7 mph4.3 kmh 30.39 in1029.1 mb 0.00 in0.0 mm 0.00 in0.0 mm 0.00 in0.0 mm
09:10 PM 41.4°F5.2°C 32.0°F0.0°C 70% 1.1 mph NE1.8 kmh NE 2.0 mph3.2 kmh 30.39 in1029.1 mb 0.00 in0.0 mm 0.00 in0.0 mm 0.00 in0.0 mm
09:15 PM 41.2°F5.1°C 32.0°F0.0°C 70% 1.1 mph NE1.8 kmh NE 2.0 mph3.2 kmh 30.39 in1029.1 mb 0.00 in0.0 mm 0.00 in0.0 mm 0.00 in0.0 mm
09:20 PM 41.0°F5.0°C 33.8°F1.0°C 71% 1.2 mph NE1.9 kmh NE 2.5 mph4.0 kmh 30.39 in1029.1 mb 0.00 in0.0 mm 0.00 in0.0 mm 0.00 in0.0 mm
09:25 PM 41.0°F5.0°C 33.8°F1.0°C 71% 1.6 mph NE2.6 kmh NE 3.1 mph5.0 kmh 30.36 in1028.1 mb 0.00 in0.0 mm 0.00 in0.0 mm 0.00 in0.0 mm
09:30 PM 41.0°F5.0°C 33.8°F1.0°C 71% 1.9 mph NE3.1 kmh NE 3.1 mph5.0 kmh 30.36 in1028.1 mb 0.00 in0.0 mm 0.00 in0.0 mm 0.00 in0.0 mm
09:35 PM 41.0°F5.0°C 33.8°F1.0°C 71% 1.8 mph NE2.9 kmh NE 3.4 mph5.5 kmh 30.36 in1028.1 mb 0.00 in0.0 mm 0.00 in0.0 mm 0.00 in0.0 mm
09:40 PM 41.0°F5.0°C 33.8°F1.0°C 71% 2.1 mph NE3.4 kmh NE 3.4 mph5.5 kmh 30.36 in1028.1 mb 0.00 in0.0 mm 0.00 in0.0 mm 0.00 in0.0 mm
09:45 PM 40.6°F4.8°C 32.0°F0.0°C 71% 1.6 mph NE2.6 kmh NE 3.1 mph5.0 kmh 30.36 in1028.1 mb 0.00 in0.0 mm 0.00 in0.0 mm 0.00 in0.0 mm
09:50 PM 40.5°F4.7°C 32.0°F0.0°C 71% 1.6 mph NE2.6 kmh NE 2.9 mph4.7 kmh 30.36 in1028.1 mb 0.00 in0.0 mm 0.00 in0.0 mm 0.00 in0.0 mm
09:55 PM 40.6°F4.8°C 32.0°F0.0°C 72% 1.8 mph NE2.9 kmh NE 3.1 mph5.0 kmh 30.36 in1028.1 mb 0.00 in0.0 mm 0.00 in0.0 mm 0.00 in0.0 mm
10:00 PM 40.3°F4.6°C 32.0°F0.0°C 71% 1.3 mph NE2.1 kmh NE 3.1 mph5.0 kmh 30.36 in1028.1 mb 0.00 in0.0 mm 0.00 in0.0 mm 0.00 in0.0 mm
10:05 PM 40.3°F4.6°C 32.0°F0.0°C 71% 1.3 mph NE2.1 kmh NE 2.5 mph4.0 kmh 30.36 in1028.1 mb 0.00 in0.0 mm 0.00 in0.0 mm 0.00 in0.0 mm
10:10 PM 40.1°F4.5°C 32.0°F0.0°C 71% 1.5 mph NE2.4 kmh NE 2.7 mph4.3 kmh 30.36 in1028.1 mb 0.00 in0.0 mm 0.00 in0.0 mm 0.00 in0.0 mm
10:15 PM 39.9°F4.4°C 32.0°F0.0°C 72% 1.6 mph NE2.6 kmh NE 2.7 mph4.3 kmh 30.36 in1028.1 mb 0.00 in0.0 mm 0.00 in0.0 mm 0.00 in0.0 mm
10:20 PM 39.6°F4.2°C 32.0°F0.0°C 71% 1.3 mph NE2.1 kmh NE 2.7 mph4.3 kmh 30.36 in1028.1 mb 0.00 in0.0 mm 0.00 in0.0 mm 0.00 in0.0 mm
10:25 PM 39.4°F4.1°C 32.0°F0.0°C 72% 1.3 mph NE2.1 kmh NE 2.7 mph4.3 kmh 30.36 in1028.1 mb 0.00 in0.0 mm 0.00 in0.0 mm 0.00 in0.0 mm
10:30 PM 39.6°F4.2°C 32.0°F0.0°C 72% 1.9 mph NE3.1 kmh NE 3.4 mph5.5 kmh 30.36 in1028.1 mb 0.00 in0.0 mm 0.00 in0.0 mm 0.00 in0.0 mm
10:35 PM 39.7°F4.3°C 32.0°F0.0°C 72% 2.5 mph NE4.0 kmh NE 4.0 mph6.4 kmh 30.36 in1028.1 mb 0.00 in0.0 mm 0.00 in0.0 mm 0.00 in0.0 mm
10:40 PM 39.7°F4.3°C 32.0°F0.0°C 72% 2.1 mph NE3.4 kmh NE 4.0 mph6.4 kmh 30.36 in1028.1 mb 0.00 in0.0 mm 0.00 in0.0 mm 0.00 in0.0 mm
10:45 PM 39.2°F4.0°C 32.0°F0.0°C 72% 1.7 mph NE2.7 kmh NE 2.7 mph4.3 kmh 30.36 in1028.1 mb 0.00 in0.0 mm 0.00 in0.0 mm 0.00 in0.0 mm
10:50 PM 39.2°F4.0°C 32.0°F0.0°C 72% 1.3 mph NE2.1 kmh NE 2.7 mph4.3 kmh 30.36 in1028.1 mb 0.00 in0.0 mm 0.00 in0.0 mm 0.00 in0.0 mm
10:55 PM 38.8°F3.8°C 30.2°F-1.0°C 72% 0.9 mph NE1.4 kmh NE 2.0 mph3.2 kmh 30.36 in1028.1 mb 0.00 in0.0 mm 0.00 in0.0 mm 0.00 in0.0 mm
11:00 PM 38.3°F3.5°C 30.2°F-1.0°C 72% 1.0 mph NE1.6 kmh NE 2.0 mph3.2 kmh 30.36 in1028.1 mb 0.00 in0.0 mm 0.00 in0.0 mm 0.00 in0.0 mm
11:05 PM 38.3°F3.5°C 30.2°F-1.0°C 72% 1.9 mph NE3.1 kmh NE 3.6 mph5.8 kmh 30.36 in1028.1 mb 0.00 in0.0 mm 0.00 in0.0 mm 0.00 in0.0 mm
11:10 PM 38.7°F3.7°C 30.2°F-1.0°C 72% 2.4 mph NE3.9 kmh NE 3.6 mph5.8 kmh 30.36 in1028.1 mb 0.00 in0.0 mm 0.00 in0.0 mm 0.00 in0.0 mm
11:15 PM 38.7°F3.7°C 30.2°F-1.0°C 72% 1.9 mph NE3.1 kmh NE 3.1 mph5.0 kmh 30.36 in1028.1 mb 0.00 in0.0 mm 0.00 in0.0 mm 0.00 in0.0 mm
11:20 PM 38.5°F3.6°C 30.2°F-1.0°C 73% 1.5 mph NE2.4 kmh NE 2.7 mph4.3 kmh 30.36 in1028.1 mb 0.00 in0.0 mm 0.00 in0.0 mm 0.00 in0.0 mm
11:25 PM 38.3°F3.5°C 30.2°F-1.0°C 72% 1.3 mph NE2.1 kmh NE 2.7 mph4.3 kmh 30.36 in1028.1 mb 0.00 in0.0 mm 0.00 in0.0 mm 0.00 in0.0 mm
11:30 PM 38.3°F3.5°C 30.2°F-1.0°C 73% 1.3 mph NE2.1 kmh NE 2.5 mph4.0 kmh 30.36 in1028.1 mb 0.00 in0.0 mm 0.00 in0.0 mm 0.00 in0.0 mm
11:35 PM 38.5°F3.6°C 30.2°F-1.0°C 73% 2.1 mph NE3.4 kmh NE 3.4 mph5.5 kmh 30.36 in1028.1 mb 0.00 in0.0 mm 0.00 in0.0 mm 0.00 in0.0 mm
11:40 PM 38.5°F3.6°C 30.2°F-1.0°C 73% 2.5 mph NE4.0 kmh NE 3.4 mph5.5 kmh 30.36 in1028.1 mb 0.00 in0.0 mm 0.00 in0.0 mm 0.00 in0.0 mm
11:45 PM 38.3°F3.5°C 30.2°F-1.0°C 73% 2.6 mph NE4.2 kmh NE 3.8 mph6.1 kmh 30.36 in1028.1 mb 0.00 in0.0 mm 0.00 in0.0 mm 0.00 in0.0 mm
11:50 PM 38.3°F3.5°C 30.2°F-1.0°C 73% 2.5 mph NE4.0 kmh NE 3.8 mph6.1 kmh 30.36 in1028.1 mb 0.00 in0.0 mm 0.00 in0.0 mm 0.00 in0.0 mm
11:55 PM 38.1°F3.4°C 30.2°F-1.0°C 73% 1.7 mph NE2.7 kmh NE 3.4 mph5.5 kmh 30.36 in1028.1 mb 0.00 in0.0 mm 0.00 in0.0 mm 0.00 in0.0 mm